sensor_id;sensor_type;location;lat;lon;timestamp;pressure;altitude;pressure_sealevel;temperature;humidity
49585;BME280;35491;49.142;9.210;2023-02-13T00:00:49;101974.31;;;3.23;91.18
49585;BME280;35491;49.142;9.210;2023-02-13T00:01:51;101963.75;;;3.23;91.43
49585;BME280;35491;49.142;9.210;2023-02-13T00:02:54;101969.25;;;3.15;91.95
49585;BME280;35491;49.142;9.210;2023-02-13T00:03:55;101965.72;;;3.16;92.05
49585;BME280;35491;49.142;9.210;2023-02-13T00:04:59;101961.41;;;3.12;92.26
49585;BME280;35491;49.142;9.210;2023-02-13T00:06:04;101963.28;;;3.10;92.81
49585;BME280;35491;49.142;9.210;2023-02-13T00:07:07;101972.72;;;3.17;92.55
49585;BME280;35491;49.142;9.210;2023-02-13T00:08:09;101961.41;;;3.14;92.58
49585;BME280;35491;49.142;9.210;2023-02-13T00:09:13;101962.31;;;3.12;92.83
49585;BME280;35491;49.142;9.210;2023-02-13T00:10:15;101957.69;;;3.19;93.01
49585;BME280;35491;49.142;9.210;2023-02-13T00:11:18;101963.06;;;3.16;92.32
49585;BME280;35491;49.142;9.210;2023-02-13T00:12:20;101950.75;;;3.15;92.50
49585;BME280;35491;49.142;9.210;2023-02-13T00:13:24;101966.53;;;3.18;92.39
49585;BME280;35491;49.142;9.210;2023-02-13T00:14:25;101954.47;;;3.09;93.02
49585;BME280;35491;49.142;9.210;2023-02-13T00:15:28;101952.72;;;3.08;93.13
49585;BME280;35491;49.142;9.210;2023-02-13T00:16:29;101953.63;;;3.09;93.17
49585;BME280;35491;49.142;9.210;2023-02-13T00:17:33;101954.44;;;3.11;93.15
49585;BME280;35491;49.142;9.210;2023-02-13T00:18:35;101956.34;;;3.06;93.44
49585;BME280;35491;49.142;9.210;2023-02-13T00:19:39;101958.09;;;3.07;93.55
49585;BME280;35491;49.142;9.210;2023-02-13T00:20:40;101962.50;;;3.06;93.63
49585;BME280;35491;49.142;9.210;2023-02-13T00:21:46;101961.53;;;3.09;93.55
49585;BME280;35491;49.142;9.210;2023-02-13T00:22:47;101954.28;;;3.16;92.92
49585;BME280;35491;49.142;9.210;2023-02-13T00:23:51;101954.22;;;3.17;92.65
49585;BME280;35491;49.142;9.210;2023-02-13T00:24:52;101946.34;;;3.16;92.51
49585;BME280;35491;49.142;9.210;2023-02-13T00:25:56;101958.69;;;3.15;92.93
49585;BME280;35491;49.142;9.210;2023-02-13T00:26:57;101961.34;;;3.15;92.72
49585;BME280;35491;49.142;9.210;2023-02-13T00:28:01;101956.09;;;3.14;92.63
49585;BME280;35491;49.142;9.210;2023-02-13T00:29:02;101955.97;;;3.18;92.11
49585;BME280;35491;49.142;9.210;2023-02-13T00:30:06;101958.75;;;3.14;92.38
49585;BME280;35491;49.142;9.210;2023-02-13T00:31:08;101955.38;;;3.08;92.72
49585;BME280;35491;49.142;9.210;2023-02-13T00:32:13;101951.06;;;3.06;93.24
49585;BME280;35491;49.142;9.210;2023-02-13T00:33:14;101954.81;;;2.99;93.97
49585;BME280;35491;49.142;9.210;2023-02-13T00:34:17;101953.91;;;3.00;94.55
49585;BME280;35491;49.142;9.210;2023-02-13T00:35:19;101953.91;;;3.00;94.00
49585;BME280;35491;49.142;9.210;2023-02-13T00:36:22;101953.09;;;2.97;94.50
49585;BME280;35491;49.142;9.210;2023-02-13T00:37:26;101952.88;;;3.04;94.29
49585;BME280;35491;49.142;9.210;2023-02-13T00:38:30;101950.44;;;2.97;94.43
49585;BME280;35491;49.142;9.210;2023-02-13T00:39:31;101948.72;;;2.96;94.55
49585;BME280;35491;49.142;9.210;2023-02-13T00:40:35;101948.78;;;2.95;94.57
49585;BME280;35491;49.142;9.210;2023-02-13T00:41:36;101951.34;;;2.96;94.81
49585;BME280;35491;49.142;9.210;2023-02-13T00:42:40;101951.28;;;3.00;94.64
49585;BME280;35491;49.142;9.210;2023-02-13T00:43:41;101951.22;;;3.01;94.43
49585;BME280;35491;49.142;9.210;2023-02-13T00:44:45;101949.63;;;2.95;94.79
49585;BME280;35491;49.142;9.210;2023-02-13T00:45:46;101948.88;;;2.92;95.33
49585;BME280;35491;49.142;9.210;2023-02-13T00:46:50;101948.81;;;2.93;95.13
49585;BME280;35491;49.142;9.210;2023-02-13T00:47:53;101946.13;;;2.95;95.14
49585;BME280;35491;49.142;9.210;2023-02-13T00:48:54;101944.47;;;2.92;95.16
49585;BME280;35491;49.142;9.210;2023-02-13T00:49:58;101947.94;;;2.93;95.50
49585;BME280;35491;49.142;9.210;2023-02-13T00:50:59;101955.81;;;2.94;95.18
49585;BME280;35491;49.142;9.210;2023-02-13T00:52:03;101949.63;;;2.95;94.97
49585;BME280;35491;49.142;9.210;2023-02-13T00:53:07;101952.38;;;2.92;95.24
49585;BME280;35491;49.142;9.210;2023-02-13T00:54:11;101951.44;;;2.93;95.37
49585;BME280;35491;49.142;9.210;2023-02-13T00:55:12;101947.88;;;2.96;94.94
49585;BME280;35491;49.142;9.210;2023-02-13T00:56:15;101954.09;;;2.93;95.02
49585;BME280;35491;49.142;9.210;2023-02-13T00:57:16;101953.28;;;2.91;95.03
49585;BME280;35491;49.142;9.210;2023-02-13T00:58:21;101955.03;;;2.92;95.10
49585;BME280;35491;49.142;9.210;2023-02-13T00:59:23;101956.03;;;2.88;95.32
49585;BME280;35491;49.142;9.210;2023-02-13T01:00:26;101956.84;;;2.90;95.71
49585;BME280;35491;49.142;9.210;2023-02-13T01:01:27;101956.66;;;2.96;94.84
49585;BME280;35491;49.142;9.210;2023-02-13T01:02:32;101953.00;;;3.01;94.42
49585;BME280;35491;49.142;9.210;2023-02-13T01:03:35;101953.94;;;2.98;94.54
49585;BME280;35491;49.142;9.210;2023-02-13T01:04:39;101954.91;;;2.95;94.37
49585;BME280;35491;49.142;9.210;2023-02-13T01:05:40;101958.59;;;2.91;94.76
49585;BME280;35491;49.142;9.210;2023-02-13T01:06:44;101956.94;;;2.87;94.89
49585;BME280;35491;49.142;9.210;2023-02-13T01:07:45;101951.66;;;2.87;95.00
49585;BME280;35491;49.142;9.210;2023-02-13T01:08:51;101957.69;;;2.92;94.93
49585;BME280;35491;49.142;9.210;2023-02-13T01:09:53;101964.63;;;2.95;94.74
49585;BME280;35491;49.142;9.210;2023-02-13T01:10:56;101958.28;;;3.01;94.20
49585;BME280;35491;49.142;9.210;2023-02-13T01:11:58;101954.91;;;2.95;93.89
49585;BME280;35491;49.142;9.210;2023-02-13T01:13:01;101954.97;;;2.94;94.01
49585;BME280;35491;49.142;9.210;2023-02-13T01:14:03;101959.28;;;2.96;93.66
49585;BME280;35491;49.142;9.210;2023-02-13T01:15:08;101954.34;;;2.86;93.87
49585;BME280;35491;49.142;9.210;2023-02-13T01:16:09;101951.72;;;2.84;94.22
49585;BME280;35491;49.142;9.210;2023-02-13T01:17:15;101954.63;;;2.76;94.84
49585;BME280;35491;49.142;9.210;2023-02-13T01:18:19;101955.47;;;2.78;94.88
49585;BME280;35491;49.142;9.210;2023-02-13T01:19:20;101951.88;;;2.79;94.93
49585;BME280;35491;49.142;9.210;2023-02-13T01:20:24;101952.84;;;2.77;94.91
49585;BME280;35491;49.142;9.210;2023-02-13T01:21:25;101949.59;;;2.69;95.35
49585;BME280;35491;49.142;9.210;2023-02-13T01:22:29;101952.31;;;2.65;95.88
49585;BME280;35491;49.142;9.210;2023-02-13T01:23:30;101951.41;;;2.67;96.09
49585;BME280;35491;49.142;9.210;2023-02-13T01:24:36;101949.72;;;2.64;96.07
49585;BME280;35491;49.142;9.210;2023-02-13T01:25:38;101953.19;;;2.66;96.09
49585;BME280;35491;49.142;9.210;2023-02-13T01:26:42;101949.53;;;2.70;96.09
49585;BME280;35491;49.142;9.210;2023-02-13T01:27:46;101952.31;;;2.65;95.93
49585;BME280;35491;49.142;9.210;2023-02-13T01:28:50;101954.25;;;2.60;96.35
49585;BME280;35491;49.142;9.210;2023-02-13T01:29:54;101947.16;;;2.62;96.28
49585;BME280;35491;49.142;9.210;2023-02-13T01:30:55;101950.59;;;2.64;95.86
49585;BME280;35491;49.142;9.210;2023-02-13T01:31:59;101952.50;;;2.59;96.22
49585;BME280;35491;49.142;9.210;2023-02-13T01:33:03;101948.06;;;2.61;96.53
49585;BME280;35491;49.142;9.210;2023-02-13T01:34:07;101939.09;;;2.65;96.08
49585;BME280;35491;49.142;9.210;2023-02-13T01:35:08;101941.88;;;2.62;96.26
49585;BME280;35491;49.142;9.210;2023-02-13T01:36:12;101945.28;;;2.66;96.40
49585;BME280;35491;49.142;9.210;2023-02-13T01:37:14;101947.84;;;2.68;96.09
49585;BME280;35491;49.142;9.210;2023-02-13T01:38:17;101946.09;;;2.68;95.48
49585;BME280;35491;49.142;9.210;2023-02-13T01:39:18;101942.53;;;2.69;95.43
49585;BME280;35491;49.142;9.210;2023-02-13T01:40:25;101937.00;;;2.77;95.25
49585;BME280;35491;49.142;9.210;2023-02-13T01:41:29;101934.50;;;2.72;94.54
49585;BME280;35491;49.142;9.210;2023-02-13T01:42:33;101936.38;;;2.69;95.06
49585;BME280;35491;49.142;9.210;2023-02-13T01:43:45;101944.34;;;2.67;95.04
49585;BME280;35491;49.142;9.210;2023-02-13T01:44:49;101934.78;;;2.63;94.94
49585;BME280;35491;49.142;9.210;2023-02-13T01:45:53;101933.16;;;2.59;95.45
49585;BME280;35491;49.142;9.210;2023-02-13T01:46:58;101938.47;;;2.57;95.60
49585;BME280;35491;49.142;9.210;2023-02-13T01:47:59;101936.66;;;2.59;95.70
49585;BME280;35491;49.142;9.210;2023-02-13T01:49:11;101944.38;;;2.65;95.59
49585;BME280;35491;49.142;9.210;2023-02-13T01:50:19;101941.75;;;2.65;95.09
49585;BME280;35491;49.142;9.210;2023-02-13T01:51:22;101939.84;;;2.71;95.09
49585;BME280;35491;49.142;9.210;2023-02-13T01:52:28;101933.50;;;2.76;94.76
49585;BME280;35491;49.142;9.210;2023-02-13T01:53:31;101939.63;;;2.77;93.86
49585;BME280;35491;49.142;9.210;2023-02-13T01:54:35;101949.31;;;2.78;93.81
49585;BME280;35491;49.142;9.210;2023-02-13T01:55:40;101941.31;;;2.79;93.45
49585;BME280;35491;49.142;9.210;2023-02-13T01:56:47;101938.78;;;2.76;93.00
49585;BME280;35491;49.142;9.210;2023-02-13T01:57:51;101940.81;;;2.68;93.05
49585;BME280;35491;49.142;9.210;2023-02-13T01:58:58;101932.34;;;2.57;93.40
49585;BME280;35491;49.142;9.210;2023-02-13T02:00:01;101942.03;;;2.56;94.04
49585;BME280;35491;49.142;9.210;2023-02-13T02:01:06;101937.56;;;2.58;94.17
49585;BME280;35491;49.142;9.210;2023-02-13T02:02:08;101938.47;;;2.57;93.75
49585;BME280;35491;49.142;9.210;2023-02-13T02:03:12;101940.28;;;2.55;94.05
49585;BME280;35491;49.142;9.210;2023-02-13T02:04:15;101938.63;;;2.53;94.25
49585;BME280;35491;49.142;9.210;2023-02-13T02:05:22;101937.09;;;2.45;94.20
49585;BME280;35491;49.142;9.210;2023-02-13T02:06:26;101945.00;;;2.45;94.62
49585;BME280;35491;49.142;9.210;2023-02-13T02:07:31;101946.69;;;2.48;94.68
49585;BME280;35491;49.142;9.210;2023-02-13T02:08:33;101945.72;;;2.50;94.55
49585;BME280;35491;49.142;9.210;2023-02-13T02:09:37;101943.06;;;2.50;94.51
49585;BME280;35491;49.142;9.210;2023-02-13T02:10:42;101945.72;;;2.50;94.04
49585;BME280;35491;49.142;9.210;2023-02-13T02:11:48;101937.56;;;2.58;94.32
49585;BME280;35491;49.142;9.210;2023-02-13T02:12:52;101940.03;;;2.64;93.98
49585;BME280;35491;49.142;9.210;2023-02-13T02:13:58;101940.03;;;2.64;93.40
49585;BME280;35491;49.142;9.210;2023-02-13T02:15:01;101938.16;;;2.68;92.91
49585;BME280;35491;49.142;9.210;2023-02-13T02:16:05;101937.16;;;2.72;91.98
49585;BME280;35491;49.142;9.210;2023-02-13T02:17:07;101934.34;;;2.77;91.80
49585;BME280;35491;49.142;9.210;2023-02-13T02:18:12;101933.53;;;2.75;91.45
49585;BME280;35491;49.142;9.210;2023-02-13T02:19:17;101923.78;;;2.77;91.08
49585;BME280;35491;49.142;9.210;2023-02-13T02:20:28;101931.00;;;2.72;90.48
49585;BME280;35491;49.142;9.210;2023-02-13T02:21:39;101921.16;;;2.77;91.14
49585;BME280;35491;49.142;9.210;2023-02-13T02:22:57;101927.34;;;2.76;90.45
49585;BME280;35491;49.142;9.210;2023-02-13T02:24:08;101935.09;;;2.82;90.94
49585;BME280;35491;49.142;9.210;2023-02-13T02:25:22;101938.44;;;2.87;90.82
49585;BME280;35491;49.142;9.210;2023-02-13T02:26:42;101937.53;;;2.88;90.54
49585;BME280;35491;49.142;9.210;2023-02-13T02:27:55;101933.09;;;2.89;90.14
49585;BME280;35491;49.142;9.210;2023-02-13T02:29:08;101933.88;;;2.92;89.91
49585;BME280;35491;49.142;9.210;2023-02-13T02:30:22;101931.28;;;2.91;89.46
49585;BME280;35491;49.142;9.210;2023-02-13T02:33:02;101933.22;;;2.86;88.65
49585;BME280;35491;49.142;9.210;2023-02-13T02:34:09;101933.00;;;2.92;89.03
49585;BME280;35491;49.142;9.210;2023-02-13T02:35:18;101931.25;;;2.92;88.74
49585;BME280;35491;49.142;9.210;2023-02-13T02:36:28;101930.44;;;2.90;87.93
49585;BME280;35491;49.142;9.210;2023-02-13T02:37:39;101931.09;;;2.69;87.77
49585;BME280;35491;49.142;9.210;2023-02-13T02:38:49;101935.63;;;2.65;88.87
49585;BME280;35491;49.142;9.210;2023-02-13T02:40:00;101935.81;;;2.59;88.89
49585;BME280;35491;49.142;9.210;2023-02-13T02:41:04;101933.13;;;2.60;89.83
49585;BME280;35491;49.142;9.210;2023-02-13T02:42:12;101937.28;;;2.68;90.10
49585;BME280;35491;49.142;9.210;2023-02-13T02:43:23;101931.78;;;2.75;89.63
49585;BME280;35491;49.142;9.210;2023-02-13T02:44:30;101927.41;;;2.74;88.82
49585;BME280;35491;49.142;9.210;2023-02-13T02:45:34;101925.53;;;2.78;89.03
49585;BME280;35491;49.142;9.210;2023-02-13T02:46:42;101929.81;;;2.82;89.17
49585;BME280;35491;49.142;9.210;2023-02-13T02:48:13;101931.47;;;2.85;88.39
49585;BME280;35491;49.142;9.210;2023-02-13T02:49:31;101934.06;;;2.86;88.36
49585;BME280;35491;49.142;9.210;2023-02-13T02:50:50;101928.91;;;2.83;87.78
49585;BME280;35491;49.142;9.210;2023-02-13T02:51:58;101921.91;;;2.80;88.08
49585;BME280;35491;49.142;9.210;2023-02-13T02:53:08;101925.72;;;2.72;87.96
49585;BME280;35491;49.142;9.210;2023-02-13T02:54:18;101923.78;;;2.77;88.63
49585;BME280;35491;49.142;9.210;2023-02-13T02:55:37;101925.72;;;2.72;87.82
49585;BME280;35491;49.142;9.210;2023-02-13T02:56:43;101926.56;;;2.72;88.58
49585;BME280;35491;49.142;9.210;2023-02-13T02:57:45;101933.59;;;2.73;88.06
49585;BME280;35491;49.142;9.210;2023-02-13T02:59:04;101942.56;;;2.68;87.75
49585;BME280;35491;49.142;9.210;2023-02-13T03:00:22;101932.22;;;2.61;88.61
49585;BME280;35491;49.142;9.210;2023-02-13T03:01:39;101927.69;;;2.65;89.28
49585;BME280;35491;49.142;9.210;2023-02-13T03:02:56;101926.88;;;2.63;88.38
49585;BME280;35491;49.142;9.210;2023-02-13T03:04:16;101931.28;;;2.62;88.92
49585;BME280;35491;49.142;9.210;2023-02-13T03:05:33;101927.84;;;2.60;88.35
49585;BME280;35491;49.142;9.210;2023-02-13T03:06:51;101927.91;;;2.57;88.43
49585;BME280;35491;49.142;9.210;2023-02-13T03:07:57;101927.91;;;2.57;89.09
49585;BME280;35491;49.142;9.210;2023-02-13T03:08:59;101935.75;;;2.60;89.15
49585;BME280;35491;49.142;9.210;2023-02-13T03:10:25;101936.66;;;2.59;88.76
49585;BME280;35491;49.142;9.210;2023-02-13T03:11:42;101928.66;;;2.62;88.71
49585;BME280;35491;49.142;9.210;2023-02-13T03:13:01;101929.38;;;2.68;88.75
49585;BME280;35491;49.142;9.210;2023-02-13T03:15:22;101935.63;;;2.65;87.67
49585;BME280;35491;49.142;9.210;2023-02-13T03:16:28;101933.78;;;2.67;87.95
49585;BME280;35491;49.142;9.210;2023-02-13T03:17:45;101937.16;;;2.72;88.10
49585;BME280;35491;49.142;9.210;2023-02-13T03:19:01;101933.81;;;2.65;86.67
49585;BME280;35491;49.142;9.210;2023-02-13T03:20:22;101936.66;;;2.59;87.57
49585;BME280;35491;49.142;9.210;2023-02-13T03:21:43;101940.41;;;2.52;87.94
49585;BME280;35491;49.142;9.210;2023-02-13T03:23:05;101938.47;;;2.57;88.24
49585;BME280;35491;49.142;9.210;2023-02-13T03:24:13;101940.22;;;2.58;88.00
49585;BME280;35491;49.142;9.210;2023-02-13T03:25:20;101943.91;;;2.53;87.66
49585;BME280;35491;49.142;9.210;2023-02-13T03:26:37;101938.69;;;2.51;88.12
49585;BME280;35491;49.142;9.210;2023-02-13T03:27:51;101946.72;;;2.46;88.57
49585;BME280;35491;49.142;9.210;2023-02-13T03:29:12;101939.78;;;2.44;88.90
49585;BME280;35491;49.142;9.210;2023-02-13T03:30:35;101946.78;;;2.45;89.17
49585;BME280;35491;49.142;9.210;2023-02-13T03:31:44;101941.53;;;2.43;88.35
49585;BME280;35491;49.142;9.210;2023-02-13T03:32:51;101950.41;;;2.41;88.58
49585;BME280;35491;49.142;9.210;2023-02-13T03:33:58;101955.63;;;2.42;88.59
49585;BME280;35491;49.142;9.210;2023-02-13T03:35:14;101949.31;;;2.48;88.59
49585;BME280;35491;49.142;9.210;2023-02-13T03:36:36;101950.34;;;2.44;88.41
49585;BME280;35491;49.142;9.210;2023-02-13T03:37:59;101951.13;;;2.46;88.66
49585;BME280;35491;49.142;9.210;2023-02-13T03:39:14;101952.00;;;2.46;88.31
49585;BME280;35491;49.142;9.210;2023-02-13T03:40:22;101966.19;;;2.42;88.28
49585;BME280;35491;49.142;9.210;2023-02-13T03:41:27;101956.09;;;2.27;88.46
49585;BME280;35491;49.142;9.210;2023-02-13T03:42:39;101965.97;;;2.20;89.42
49585;BME280;35491;49.142;9.210;2023-02-13T03:43:48;101965.38;;;2.10;89.89
49585;BME280;35491;49.142;9.210;2023-02-13T03:44:53;101960.09;;;2.10;90.78
49585;BME280;35491;49.142;9.210;2023-02-13T03:46:11;101966.34;;;2.08;90.53
49585;BME280;35491;49.142;9.210;2023-02-13T03:47:16;101968.72;;;2.15;91.28
49585;BME280;35491;49.142;9.210;2023-02-13T03:48:22;101961.69;;;2.16;90.58
49585;BME280;35491;49.142;9.210;2023-02-13T03:49:43;101967.19;;;2.08;90.77
49585;BME280;35491;49.142;9.210;2023-02-13T03:51:00;101974.13;;;2.12;90.80
49585;BME280;35491;49.142;9.210;2023-02-13T03:52:10;101972.50;;;2.07;90.47
49585;BME280;35491;49.142;9.210;2023-02-13T03:53:14;101973.50;;;2.02;90.42
49585;BME280;35491;49.142;9.210;2023-02-13T03:54:19;101970.19;;;1.94;90.69
49585;BME280;35491;49.142;9.210;2023-02-13T03:55:44;101969.13;;;2.01;91.64
49585;BME280;35491;49.142;9.210;2023-02-13T03:57:01;101968.28;;;1.99;90.82
49585;BME280;35491;49.142;9.210;2023-02-13T03:58:18;101975.16;;;2.07;90.67
49585;BME280;35491;49.142;9.210;2023-02-13T03:59:37;101975.31;;;2.00;90.02
49585;BME280;35491;49.142;9.210;2023-02-13T04:00:43;101977.28;;;1.92;90.28
49585;BME280;35491;49.142;9.210;2023-02-13T04:02:53;101980.13;;;1.84;90.66
49585;BME280;35491;49.142;9.210;2023-02-13T04:04:00;101980.22;;;1.81;91.01
49585;BME280;35491;49.142;9.210;2023-02-13T04:05:07;101978.66;;;1.74;91.34
49585;BME280;35491;49.142;9.210;2023-02-13T04:06:25;101981.25;;;1.76;91.45
49585;BME280;35491;49.142;9.210;2023-02-13T04:08:52;101985.03;;;1.65;92.26
49585;BME280;35491;49.142;9.210;2023-02-13T04:09:56;101979.75;;;1.65;92.25
49585;BME280;35491;49.142;9.210;2023-02-13T04:11:01;101977.94;;;1.67;92.52
49585;BME280;35491;49.142;9.210;2023-02-13T04:12:10;101983.22;;;1.67;91.94
49585;BME280;35491;49.142;9.210;2023-02-13T04:13:17;101980.59;;;1.66;91.85
49585;BME280;35491;49.142;9.210;2023-02-13T04:14:24;101984.84;;;1.71;91.70
49585;BME280;35491;49.142;9.210;2023-02-13T04:15:30;101982.97;;;1.77;91.40
49585;BME280;35491;49.142;9.210;2023-02-13T04:16:37;101978.78;;;1.69;90.32
49585;BME280;35491;49.142;9.210;2023-02-13T04:17:47;101972.63;;;1.69;90.89
49585;BME280;35491;49.142;9.210;2023-02-13T04:18:52;101983.88;;;1.76;90.94
49585;BME280;35491;49.142;9.210;2023-02-13T04:19:57;101983.06;;;1.74;89.99
49585;BME280;35491;49.142;9.210;2023-02-13T04:21:02;101977.00;;;1.70;90.00
49585;BME280;35491;49.142;9.210;2023-02-13T04:22:10;101977.00;;;1.70;89.87
49585;BME280;35491;49.142;9.210;2023-02-13T04:23:15;101983.13;;;1.70;89.98
49585;BME280;35491;49.142;9.210;2023-02-13T04:24:19;101985.75;;;1.72;90.04
49585;BME280;35491;49.142;9.210;2023-02-13T04:25:24;101977.78;;;1.74;89.68
49585;BME280;35491;49.142;9.210;2023-02-13T04:26:30;101975.09;;;1.75;89.57
49585;BME280;35491;49.142;9.210;2023-02-13T04:27:36;101983.81;;;1.79;89.97
49585;BME280;35491;49.142;9.210;2023-02-13T04:28:38;101978.81;;;1.68;88.76
49585;BME280;35491;49.142;9.210;2023-02-13T04:29:42;101985.28;;;1.56;89.49
49585;BME280;35491;49.142;9.210;2023-02-13T04:30:44;101988.84;;;1.53;89.74
49585;BME280;35491;49.142;9.210;2023-02-13T04:31:50;101980.78;;;1.60;90.17
49585;BME280;35491;49.142;9.210;2023-02-13T04:32:52;101978.19;;;1.58;89.65
49585;BME280;35491;49.142;9.210;2023-02-13T04:33:56;101980.91;;;1.55;89.58
49585;BME280;35491;49.142;9.210;2023-02-13T04:34:59;101985.28;;;1.56;89.82
49585;BME280;35491;49.142;9.210;2023-02-13T04:36:03;101987.00;;;1.57;89.68
49585;BME280;35491;49.142;9.210;2023-02-13T04:38:30;101992.28;;;1.57;89.37
49585;BME280;35491;49.142;9.210;2023-02-13T04:39:47;101986.94;;;1.60;89.32
49585;BME280;35491;49.142;9.210;2023-02-13T04:40:51;101981.66;;;1.60;89.04
49585;BME280;35491;49.142;9.210;2023-02-13T04:41:54;101985.09;;;1.62;89.09
49585;BME280;35491;49.142;9.210;2023-02-13T04:42:59;101984.13;;;1.66;89.13
49585;BME280;35491;49.142;9.210;2023-02-13T04:45:08;101988.41;;;1.70;88.13
49585;BME280;35491;49.142;9.210;2023-02-13T04:46:09;101982.31;;;1.68;88.15
49585;BME280;35491;49.142;9.210;2023-02-13T04:47:13;101989.34;;;1.68;87.79
49585;BME280;35491;49.142;9.210;2023-02-13T04:48:15;101992.81;;;1.70;87.81
49585;BME280;35491;49.142;9.210;2023-02-13T04:49:21;101987.59;;;1.68;87.51
49585;BME280;35491;49.142;9.210;2023-02-13T04:50:25;101990.31;;;1.65;87.67
49585;BME280;35491;49.142;9.210;2023-02-13T04:51:29;101987.78;;;1.61;87.63
49585;BME280;35491;49.142;9.210;2023-02-13T04:52:30;101987.06;;;1.55;87.68
49585;BME280;35491;49.142;9.210;2023-02-13T04:53:34;101988.75;;;1.58;88.14
49585;BME280;35491;49.142;9.210;2023-02-13T04:54:49;101988.81;;;1.55;87.69
49585;BME280;35491;49.142;9.210;2023-02-13T04:55:53;101988.88;;;1.52;87.50
49585;BME280;35491;49.142;9.210;2023-02-13T04:56:55;101989.88;;;1.48;87.43
49585;BME280;35491;49.142;9.210;2023-02-13T04:58:00;101986.41;;;1.46;87.53
49585;BME280;35491;49.142;9.210;2023-02-13T04:59:10;101983.03;;;1.40;87.60
49585;BME280;35491;49.142;9.210;2023-02-13T05:00:14;101985.78;;;1.34;88.30
49585;BME280;35491;49.142;9.210;2023-02-13T05:01:16;101986.69;;;1.33;88.04
49585;BME280;35491;49.142;9.210;2023-02-13T05:02:20;101978.84;;;1.32;88.40
49585;BME280;35491;49.142;9.210;2023-02-13T05:03:25;101983.50;;;1.20;88.39
49585;BME280;35491;49.142;9.210;2023-02-13T05:05:57;101986.28;;;1.14;89.42
49585;BME280;35491;49.142;9.210;2023-02-13T05:08:17;101980.19;;;1.12;90.25
49585;BME280;35491;49.142;9.210;2023-02-13T05:09:19;101986.34;;;1.13;90.08
49585;BME280;35491;49.142;9.210;2023-02-13T05:10:26;101990.44;;;1.23;90.25
49585;BME280;35491;49.142;9.210;2023-02-13T05:11:28;101988.75;;;1.22;89.06
49585;BME280;35491;49.142;9.210;2023-02-13T05:12:32;101987.81;;;1.23;89.95
49585;BME280;35491;49.142;9.210;2023-02-13T05:13:43;101987.75;;;1.26;89.81
49585;BME280;35491;49.142;9.210;2023-02-13T05:14:47;101981.63;;;1.26;89.56
49585;BME280;35491;49.142;9.210;2023-02-13T05:15:50;101980.63;;;1.31;90.10
49585;BME280;35491;49.142;9.210;2023-02-13T05:16:54;101987.69;;;1.29;89.69
49585;BME280;35491;49.142;9.210;2023-02-13T05:17:56;101981.53;;;1.30;89.75
49585;BME280;35491;49.142;9.210;2023-02-13T05:18:59;101984.06;;;1.33;89.68
49585;BME280;35491;49.142;9.210;2023-02-13T05:21:21;101989.75;;;1.16;90.18
49585;BME280;35491;49.142;9.210;2023-02-13T05:22:42;101991.38;;;1.22;90.71
49585;BME280;35491;49.142;9.210;2023-02-13T05:24:10;101992.19;;;1.26;90.55
49585;BME280;35491;49.142;9.210;2023-02-13T05:25:12;101989.38;;;1.32;90.31
49585;BME280;35491;49.142;9.210;2023-02-13T05:26:30;101985.06;;;1.29;89.63
49585;BME280;35491;49.142;9.210;2023-02-13T05:27:34;101976.19;;;1.32;89.71
49585;BME280;35491;49.142;9.210;2023-02-13T05:28:41;101993.88;;;1.28;88.56
49585;BME280;35491;49.142;9.210;2023-02-13T05:29:57;101987.03;;;1.19;88.52
49585;BME280;35491;49.142;9.210;2023-02-13T05:31:01;101987.13;;;1.16;89.20
49585;BME280;35491;49.142;9.210;2023-02-13T05:32:02;101983.59;;;1.16;89.48
49585;BME280;35491;49.142;9.210;2023-02-13T05:33:06;101986.25;;;1.16;88.94
49585;BME280;35491;49.142;9.210;2023-02-13T05:34:09;101988.03;;;1.15;89.21
49585;BME280;35491;49.142;9.210;2023-02-13T05:35:18;101986.19;;;1.19;89.32
49585;BME280;35491;49.142;9.210;2023-02-13T05:36:27;101988.78;;;1.20;88.97
49585;BME280;35491;49.142;9.210;2023-02-13T05:37:39;101980.81;;;1.23;88.74
49585;BME280;35491;49.142;9.210;2023-02-13T05:38:49;101977.16;;;1.29;88.56
49585;BME280;35491;49.142;9.210;2023-02-13T05:39:55;101977.94;;;1.33;88.45
49585;BME280;35491;49.142;9.210;2023-02-13T05:42:18;101975.25;;;1.34;87.85
49585;BME280;35491;49.142;9.210;2023-02-13T05:43:26;101978.56;;;1.43;88.22
49585;BME280;35491;49.142;9.210;2023-02-13T05:44:29;101975.81;;;1.47;87.71
49585;BME280;35491;49.142;9.210;2023-02-13T05:45:35;101974.06;;;1.48;87.06
49585;BME280;35491;49.142;9.210;2023-02-13T05:46:38;101976.63;;;1.51;87.13
49585;BME280;35491;49.142;9.210;2023-02-13T05:47:44;101988.88;;;1.52;86.68
49585;BME280;35491;49.142;9.210;2023-02-13T05:48:58;101981.97;;;1.48;86.11
49585;BME280;35491;49.142;9.210;2023-02-13T05:50:05;101985.44;;;1.50;86.50
49585;BME280;35491;49.142;9.210;2023-02-13T05:52:23;101980.41;;;1.40;86.31
49585;BME280;35491;49.142;9.210;2023-02-13T05:53:26;101983.03;;;1.40;86.59
49585;BME280;35491;49.142;9.210;2023-02-13T05:54:36;101992.75;;;1.38;86.37
49585;BME280;35491;49.142;9.210;2023-02-13T05:55:39;101987.41;;;1.42;87.03
49585;BME280;35491;49.142;9.210;2023-02-13T05:56:48;101990.84;;;1.44;86.54
49585;BME280;35491;49.142;9.210;2023-02-13T05:57:58;101992.44;;;1.51;87.14
49585;BME280;35491;49.142;9.210;2023-02-13T05:59:02;101988.84;;;1.53;86.75
49585;BME280;35491;49.142;9.210;2023-02-13T06:00:10;101994.06;;;1.55;86.43
49585;BME280;35491;49.142;9.210;2023-02-13T06:01:19;101989.63;;;1.57;86.76
49585;BME280;35491;49.142;9.210;2023-02-13T06:02:23;101989.63;;;1.57;86.24
49585;BME280;35491;49.142;9.210;2023-02-13T06:03:26;101987.84;;;1.59;86.37
49585;BME280;35491;49.142;9.210;2023-02-13T06:04:30;101990.38;;;1.62;86.33
49585;BME280;35491;49.142;9.210;2023-02-13T06:05:33;101982.50;;;1.61;85.81
49585;BME280;35491;49.142;9.210;2023-02-13T06:06:37;101986.84;;;1.63;85.95
49585;BME280;35491;49.142;9.210;2023-02-13T06:07:41;101985.09;;;1.62;85.96